Time;durP1;ratioP1;P1;durP2;ratioP2;P2;SDS_P1;SDS_P2;PMS_P1;PMS_P2;Temp;Humidity;BMP_temperature;BMP_pressure;BME280_temperature;BME280_humidity;BME280_pressure;Samples;Min_cycle;Max_cycle;Signal;HPM_P1;HPM_P2
2023/04/05 00:00:33;;;;;;;8.70;6.50;;;4.10;99.90;;;;;;5027212;28;20702;-69
2023/04/05 00:02:59;;;;;;;6.97;6.10;;;4.10;99.90;;;;;;5026679;28;20173;-69
2023/04/05 00:05:29;;;;;;;7.80;6.43;;;4.00;99.90;;;;;;5026863;28;20515;-69
2023/04/05 00:07:59;;;;;;;6.63;5.90;;;4.00;99.90;;;;;;5027164;28;20171;-68
2023/04/05 00:10:26;;;;;;;7.63;6.13;;;4.00;99.90;;;;;;5026689;28;20426;-69
2023/04/05 00:12:51;;;;;;;7.20;6.47;;;3.90;99.90;;;;;;5023928;28;20937;-69
2023/04/05 00:15:17;;;;;;;7.00;6.40;;;4.00;99.90;;;;;;5026869;28;20475;-68
2023/04/05 00:17:44;;;;;;;9.73;7.03;;;3.90;99.90;;;;;;5026168;28;20184;-69
2023/04/05 00:20:10;;;;;;;7.90;6.87;;;3.90;99.90;;;;;;5026615;28;20195;-69
2023/04/05 00:22:37;;;;;;;7.13;6.43;;;3.90;99.90;;;;;;5026376;28;20477;-68
2023/04/05 00:25:03;;;;;;;6.93;6.10;;;4.00;99.90;;;;;;5026197;28;20417;-69
2023/04/05 00:27:28;;;;;;;6.13;5.50;;;3.90;99.90;;;;;;5026443;28;20444;-69
2023/04/05 00:29:54;;;;;;;7.00;5.57;;;3.90;99.90;;;;;;5026308;28;20426;-69
2023/04/05 00:32:20;;;;;;;6.50;5.80;;;3.90;99.90;;;;;;5026709;28;20183;-69
2023/04/05 00:34:46;;;;;;;6.10;5.50;;;3.90;99.90;;;;;;5026273;28;20418;-70
2023/04/05 00:37:11;;;;;;;6.43;5.83;;;3.90;99.90;;;;;;5025933;28;20437;-69
2023/04/05 00:39:38;;;;;;;5.80;5.30;;;4.00;99.90;;;;;;5026234;28;20652;-69
2023/04/05 00:42:04;;;;;;;8.40;6.23;;;4.10;99.90;;;;;;5025943;28;20199;-70
2023/04/05 00:44:33;;;;;;;9.27;6.17;;;4.10;99.90;;;;;;5026278;28;20433;-69
2023/04/05 00:47:03;;;;;;;7.83;6.00;;;4.10;99.90;;;;;;5026208;28;20520;-69
2023/04/05 00:49:33;;;;;;;7.50;6.60;;;3.90;99.90;;;;;;5025701;28;20810;-70
2023/04/05 00:51:59;;;;;;;5.97;5.40;;;3.80;99.90;;;;;;5025921;28;20418;-70
2023/04/05 00:54:27;;;;;;;7.20;6.13;;;3.80;99.90;;;;;;5025921;28;20410;-69
2023/04/05 00:56:58;;;;;;;8.50;6.60;;;3.80;99.90;;;;;;5026363;28;20424;-70
2023/04/05 00:59:25;;;;;;;7.83;7.13;;;3.70;99.90;;;;;;5025959;28;20443;-70
2023/04/05 01:01:59;;;;;;;9.00;7.40;;;3.70;99.90;;;;;;5025527;28;20896;-68
2023/04/05 01:04:29;;;;;;;7.87;7.07;;;3.70;99.90;;;;;;5025412;28;20482;-70
2023/04/05 01:07:06;;;;;;;7.50;6.80;;;3.70;99.90;;;;;;5025556;28;20410;-68
2023/04/05 01:09:58;;;;;;;7.00;6.40;;;3.70;99.90;;;;;;5025636;28;20491;-68
2023/04/05 01:12:32;;;;;;;8.27;6.70;;;3.70;99.90;;;;;;5025547;28;20425;-70
2023/04/05 01:14:59;;;;;;;7.20;6.60;;;3.60;99.90;;;;;;5024774;28;20509;-69
2023/04/05 01:17:27;;;;;;;10.43;7.20;;;3.60;99.90;;;;;;5025230;28;20421;-69
2023/04/05 01:20:07;;;;;;;9.30;6.90;;;3.50;99.90;;;;;;5024847;28;20459;-68
2023/04/05 01:22:41;;;;;;;7.97;7.10;;;3.50;99.90;;;;;;5025219;28;20460;-69
2023/04/05 01:25:09;;;;;;;7.03;6.40;;;3.50;99.90;;;;;;5025014;28;20413;-70
2023/04/05 01:27:53;;;;;;;7.53;6.83;;;3.40;99.90;;;;;;5009864;28;20960;-68
2023/04/05 01:30:30;;;;;;;7.20;6.17;;;3.40;99.90;;;;;;5013537;28;20472;-69
2023/04/05 01:33:05;;;;;;;6.50;5.90;;;3.30;99.90;;;;;;5026643;28;20422;-69
2023/04/05 01:35:38;;;;;;;8.97;7.40;;;3.30;99.90;;;;;;5026423;28;20412;-69
2023/04/05 01:38:06;;;;;;;6.17;5.57;;;3.30;99.90;;;;;;5025791;28;20933;-68
2023/04/05 01:40:36;;;;;;;7.60;6.90;;;3.30;99.90;;;;;;5025109;28;20480;-69
2023/04/05 01:43:04;;;;;;;8.10;6.77;;;3.30;99.90;;;;;;5028694;28;20439;-70
2023/04/05 01:45:30;;;;;;;8.87;5.97;;;3.20;99.90;;;;;;5025458;28;20452;-69
2023/04/05 01:47:56;;;;;;;7.00;6.33;;;3.20;99.90;;;;;;5025159;28;20441;-69
2023/04/05 01:50:21;;;;;;;7.40;6.70;;;3.20;99.90;;;;;;5024279;28;20865;-70
2023/04/05 01:52:47;;;;;;;7.13;6.47;;;3.20;99.90;;;;;;5024924;28;20205;-68
2023/04/05 01:55:12;;;;;;;8.30;6.00;;;3.30;99.90;;;;;;5024521;28;20506;-69
2023/04/05 01:57:38;;;;;;;7.97;6.50;;;3.20;99.90;;;;;;5024658;28;20212;-69
2023/04/05 02:00:04;;;;;;;6.80;5.93;;;3.20;99.90;;;;;;5024633;28;20202;-69
2023/04/05 02:02:29;;;;;;;7.03;6.33;;;3.20;99.90;;;;;;5024439;28;20229;-69
2023/04/05 02:04:55;;;;;;;9.97;7.13;;;3.10;99.90;;;;;;5011892;28;20455;-69
2023/04/05 02:07:21;;;;;;;7.03;6.33;;;3.10;99.90;;;;;;5024583;28;21056;-69
2023/04/05 02:09:46;;;;;;;7.20;6.50;;;3.10;99.90;;;;;;5024058;28;20251;-70
2023/04/05 02:12:12;;;;;;;9.30;6.67;;;3.10;99.90;;;;;;5023964;28;20527;-69
2023/04/05 02:14:38;;;;;;;7.73;7.03;;;3.10;99.90;;;;;;5023976;28;20189;-69
2023/04/05 02:17:03;;;;;;;7.20;6.60;;;3.10;99.90;;;;;;5024165;28;20185;-70
2023/04/05 02:19:36;;;;;;;7.47;6.67;;;3.00;99.90;;;;;;5022428;28;20475;-70
2023/04/05 02:22:01;;;;;;;7.97;6.93;;;3.00;99.90;;;;;;5024216;28;20709;-69
2023/04/05 02:24:27;;;;;;;11.50;6.67;;;3.00;99.90;;;;;;5023949;28;20452;-69
2023/04/05 02:26:52;;;;;;;8.60;7.60;;;3.00;99.90;;;;;;5024252;28;20644;-70
2023/04/05 02:29:18;;;;;;;8.53;6.80;;;3.00;99.90;;;;;;5023980;28;20193;-70
2023/04/05 02:31:44;;;;;;;6.97;6.30;;;3.10;99.90;;;;;;5024163;28;20320;-70
2023/04/05 02:34:10;;;;;;;7.73;6.97;;;3.10;99.90;;;;;;5023695;28;20178;-70
2023/04/05 02:36:36;;;;;;;7.13;6.40;;;3.00;99.90;;;;;;5023862;28;20201;-70
2023/04/05 02:39:01;;;;;;;7.63;6.90;;;3.00;99.90;;;;;;5023801;28;20417;-70
2023/04/05 02:41:27;;;;;;;7.47;6.63;;;2.90;99.90;;;;;;5023976;28;20250;-70
2023/04/05 02:43:52;;;;;;;10.50;9.50;;;2.90;99.90;;;;;;5024202;28;20175;-70
2023/04/05 02:46:18;;;;;;;9.57;7.57;;;2.90;99.90;;;;;;5023715;28;20220;-70
2023/04/05 02:48:45;;;;;;;7.33;6.63;;;3.00;99.90;;;;;;5023570;28;20527;-69
2023/04/05 02:51:11;;;;;;;8.67;7.77;;;3.00;99.90;;;;;;5015215;28;20218;-71
2023/04/05 02:53:36;;;;;;;12.10;8.17;;;3.00;99.90;;;;;;5022651;28;20806;-70
2023/04/05 02:56:02;;;;;;;9.33;7.40;;;3.00;99.90;;;;;;5023921;28;20184;-70
2023/04/05 02:58:27;;;;;;;8.23;7.17;;;3.00;99.90;;;;;;5024166;28;20195;-69
2023/04/05 03:00:53;;;;;;;8.37;7.57;;;3.10;99.90;;;;;;5023949;28;20257;-71
2023/04/05 03:03:20;;;;;;;8.57;7.37;;;3.00;99.90;;;;;;5023543;28;20263;-70
2023/04/05 03:05:47;;;;;;;8.30;7.40;;;3.10;99.90;;;;;;5024698;28;21231;-70
2023/04/05 03:08:17;;;;;;;7.83;7.13;;;3.10;99.90;;;;;;5023761;28;20506;-70
2023/04/05 03:10:46;;;;;;;8.67;7.80;;;3.10;99.90;;;;;;5023541;28;20820;-69
2023/04/05 03:13:15;;;;;;;7.60;6.90;;;3.10;99.90;;;;;;5023483;28;20465;-70
2023/04/05 03:15:41;;;;;;;9.33;8.37;;;3.00;99.90;;;;;;5023579;28;20424;-70
2023/04/05 03:18:06;;;;;;;9.33;8.33;;;3.00;99.90;;;;;;5023841;28;20829;-68
2023/04/05 03:20:35;;;;;;;9.03;8.13;;;3.00;99.90;;;;;;5023156;28;20536;-69
2023/04/05 03:23:00;;;;;;;9.00;8.10;;;3.00;99.90;;;;;;5024267;28;20530;-71
2023/04/05 03:25:26;;;;;;;9.33;8.10;;;3.00;99.90;;;;;;5027722;28;20458;-69
2023/04/05 03:27:52;;;;;;;8.13;7.13;;;3.00;99.90;;;;;;5027319;28;20182;-72
2023/04/05 03:30:17;;;;;;;7.83;7.03;;;3.00;99.90;;;;;;5027877;28;20504;-70
2023/04/05 03:32:43;;;;;;;11.77;8.53;;;2.80;99.90;;;;;;5026936;28;20187;-70
2023/04/05 03:35:09;;;;;;;13.37;8.20;;;2.90;99.90;;;;;;5026960;28;20189;-69
2023/04/05 03:37:34;;;;;;;11.30;7.60;;;2.80;99.90;;;;;;5026987;28;20190;-69
2023/04/05 03:40:00;;;;;;;8.30;7.50;;;2.80;99.90;;;;;;5027079;28;20245;-70
2023/04/05 03:42:26;;;;;;;8.50;7.80;;;2.80;99.90;;;;;;5027630;28;20252;-70
2023/04/05 03:44:52;;;;;;;9.00;8.10;;;2.80;99.90;;;;;;5027215;28;20196;-69
2023/04/05 03:47:18;;;;;;;8.80;7.90;;;2.80;99.90;;;;;;5029401;28;20185;-70
2023/04/05 03:49:44;;;;;;;10.70;8.57;;;2.70;99.90;;;;;;5029163;28;20510;-70
2023/04/05 03:52:09;;;;;;;9.10;8.23;;;2.70;99.90;;;;;;5027186;28;20649;-70
2023/04/05 03:54:35;;;;;;;10.80;8.77;;;2.60;99.90;;;;;;5026782;28;20195;-70
2023/04/05 03:57:01;;;;;;;10.00;7.90;;;2.50;99.90;;;;;;5026526;28;20274;-70
2023/04/05 03:59:26;;;;;;;9.83;8.83;;;2.40;99.90;;;;;;5026770;28;20572;-69
2023/04/05 04:01:52;;;;;;;9.53;8.53;;;2.40;99.90;;;;;;5027015;28;20452;-69
2023/04/05 04:04:18;;;;;;;11.10;8.70;;;2.40;99.90;;;;;;5026385;28;20655;-69
2023/04/05 04:06:43;;;;;;;10.20;9.20;;;2.40;99.90;;;;;;5026873;28;20185;-69
2023/04/05 04:09:09;;;;;;;8.10;7.40;;;2.50;99.90;;;;;;5026382;28;20268;-69
2023/04/05 04:11:35;;;;;;;10.30;9.17;;;2.50;99.90;;;;;;5026520;28;20186;-69
2023/04/05 04:14:00;;;;;;;10.10;8.50;;;2.40;99.90;;;;;;5026147;28;20424;-69
2023/04/05 04:16:26;;;;;;;10.33;9.30;;;2.40;99.90;;;;;;5026370;28;20566;-69
2023/04/05 04:18:53;;;;;;;11.13;9.20;;;2.30;99.90;;;;;;5026222;28;20182;-68
2023/04/05 04:21:23;;;;;;;9.50;8.03;;;2.30;99.90;;;;;;5026435;28;21030;-68
2023/04/05 04:23:50;;;;;;;10.33;9.27;;;2.30;99.90;;;;;;5026308;28;20396;-69
2023/04/05 04:26:25;;;;;;;13.17;8.80;;;2.30;99.90;;;;;;5026285;28;20520;-69
2023/04/05 04:28:52;;;;;;;13.13;9.23;;;2.30;99.90;;;;;;5029906;28;20426;-68
2023/04/05 04:31:17;;;;;;;10.10;8.20;;;2.20;99.90;;;;;;5026108;28;20435;-70
2023/04/05 04:33:43;;;;;;;10.63;9.00;;;2.10;99.90;;;;;;5025958;28;20426;-70
2023/04/05 04:36:12;;;;;;;14.30;9.90;;;2.10;99.90;;;;;;5031202;28;20179;-70
2023/04/05 04:38:45;;;;;;;10.73;9.23;;;2.10;99.90;;;;;;5025984;28;20177;-71
2023/04/05 04:41:11;;;;;;;9.50;8.60;;;2.10;99.90;;;;;;5025636;28;20749;-70
2023/04/05 04:43:41;;;;;;;9.10;8.20;;;2.00;99.90;;;;;;5025520;28;20411;-69
2023/04/05 04:46:13;;;;;;;9.17;8.30;;;2.10;99.90;;;;;;5025022;28;20411;-69
2023/04/05 04:48:41;;;;;;;10.50;8.63;;;2.10;99.90;;;;;;5025487;28;20403;-69
2023/04/05 04:51:07;;;;;;;10.57;8.80;;;2.10;99.90;;;;;;5026031;28;20440;-70
2023/04/05 04:53:32;;;;;;;11.03;9.97;;;2.00;99.90;;;;;;5014400;28;20948;-68
2023/04/05 04:55:58;;;;;;;8.97;7.97;;;2.00;99.90;;;;;;5026090;28;20264;-72
2023/04/05 04:58:23;;;;;;;11.10;8.80;;;2.00;99.90;;;;;;5025601;28;20828;-71
2023/04/05 05:00:51;;;;;;;9.10;8.20;;;1.90;99.90;;;;;;5025641;28;20209;-68
2023/04/05 05:03:17;;;;;;;10.63;9.10;;;2.10;99.90;;;;;;5026111;28;20254;-69
2023/04/05 05:05:48;;;;;;;8.87;7.97;;;2.10;99.90;;;;;;5025336;28;20912;-67
2023/04/05 05:08:13;;;;;;;11.63;10.43;;;2.20;99.90;;;;;;5025153;28;20462;-70
2023/04/05 05:10:39;;;;;;;12.80;8.87;;;2.10;99.90;;;;;;5035268;28;20800;-68
2023/04/05 05:13:05;;;;;;;11.60;8.70;;;2.10;99.90;;;;;;5025478;28;20432;-69
2023/04/05 05:15:31;;;;;;;9.23;8.33;;;2.10;99.90;;;;;;5012043;28;20431;-69
2023/04/05 05:17:57;;;;;;;13.70;10.57;;;2.10;99.90;;;;;;5025345;28;20197;-69
2023/04/05 05:20:28;;;;;;;10.83;8.93;;;2.10;99.90;;;;;;5024803;28;20281;-70
2023/04/05 05:22:54;;;;;;;11.63;10.43;;;2.20;99.90;;;;;;5014938;28;20430;-70
2023/04/05 05:25:21;;;;;;;10.70;9.80;;;2.20;99.90;;;;;;5025002;28;20415;-70
2023/04/05 05:27:50;;;;;;;11.40;10.27;;;2.30;99.90;;;;;;4994721;28;20420;-70
2023/04/05 05:30:16;;;;;;;13.97;9.73;;;2.40;99.90;;;;;;5025047;28;20439;-70
2023/04/05 05:32:42;;;;;;;13.20;11.80;;;2.30;99.90;;;;;;5025592;28;20538;-70
2023/04/05 05:35:08;;;;;;;13.20;10.60;;;2.40;99.90;;;;;;5026143;28;20463;-70
2023/04/05 05:37:34;;;;;;;13.43;10.50;;;2.30;99.90;;;;;;5025644;28;20668;-70
2023/04/05 05:40:00;;;;;;;16.67;12.80;;;2.30;99.90;;;;;;5026059;28;20454;-69
2023/04/05 05:42:28;;;;;;;13.40;10.70;;;2.40;99.90;;;;;;5027248;28;20944;-70
2023/04/05 05:44:54;;;;;;;16.43;10.67;;;2.40;99.90;;;;;;5030817;28;20228;-70
2023/04/05 05:47:19;;;;;;;10.73;9.83;;;2.30;99.90;;;;;;5025907;28;20420;-71
2023/04/05 05:49:45;;;;;;;13.10;11.00;;;2.40;99.90;;;;;;5024545;28;20204;-70
2023/04/05 05:52:10;;;;;;;12.17;10.80;;;2.40;99.90;;;;;;5025349;28;20193;-70
2023/04/05 05:54:36;;;;;;;11.70;10.00;;;2.40;99.90;;;;;;5024759;28;20219;-69
2023/04/05 05:57:02;;;;;;;12.50;10.63;;;2.40;99.90;;;;;;5026978;28;20171;-69
2023/04/05 05:59:27;;;;;;;17.53;14.73;;;2.40;99.90;;;;;;5024517;28;20205;-69
2023/04/05 06:01:54;;;;;;;13.10;11.80;;;2.40;99.90;;;;;;5024354;28;20468;-70
2023/04/05 06:04:19;;;;;;;13.60;10.70;;;2.50;99.90;;;;;;5023894;28;20177;-70
2023/04/05 06:06:46;;;;;;;11.60;10.43;;;2.70;99.90;;;;;;5024413;28;20411;-69
2023/04/05 06:09:12;;;;;;;15.33;11.37;;;2.70;99.90;;;;;;5024643;28;20504;-68
2023/04/05 06:11:38;;;;;;;12.43;10.30;;;2.80;99.90;;;;;;5024109;28;21221;-68
2023/04/05 06:14:04;;;;;;;11.03;9.80;;;2.90;99.90;;;;;;5024555;28;20420;-69
2023/04/05 06:16:29;;;;;;;12.07;10.10;;;3.00;99.90;;;;;;5023967;28;20206;-70
2023/04/05 06:18:56;;;;;;;11.83;10.13;;;3.10;99.90;;;;;;5024942;28;20247;-69
2023/04/05 06:21:22;;;;;;;11.80;10.60;;;3.20;99.90;;;;;;5027092;28;20202;-69
2023/04/05 06:23:47;;;;;;;10.23;9.13;;;3.30;99.90;;;;;;5024516;28;20487;-69
2023/04/05 06:26:21;;;;;;;10.93;9.60;;;3.40;99.90;;;;;;5023918;28;20991;-70
2023/04/05 06:28:48;;;;;;;10.83;9.37;;;3.40;99.90;;;;;;5024985;28;20771;-70
2023/04/05 06:31:15;;;;;;;13.03;10.37;;;3.50;99.90;;;;;;5033654;28;20449;-68
2023/04/05 06:33:41;;;;;;;11.23;10.10;;;3.50;99.90;;;;;;5032761;28;20508;-70
2023/04/05 06:36:07;;;;;;;12.00;10.80;;;3.70;99.90;;;;;;5018471;28;20422;-69
2023/04/05 06:38:33;;;;;;;11.40;9.97;;;3.80;99.90;;;;;;5025143;28;20428;-67
2023/04/05 06:40:59;;;;;;;15.40;10.67;;;3.90;99.90;;;;;;5014088;28;21078;-69
2023/04/05 06:43:24;;;;;;;15.13;12.30;;;4.00;99.90;;;;;;5033115;28;20193;-68
2023/04/05 06:45:50;;;;;;;12.50;11.20;;;4.10;99.90;;;;;;5034284;28;20209;-68
2023/04/05 06:48:15;;;;;;;12.53;11.23;;;4.20;99.90;;;;;;5026471;28;20175;-69
2023/04/05 06:50:41;;;;;;;16.03;12.17;;;4.20;99.90;;;;;;5032982;28;20206;-68
2023/04/05 06:53:07;;;;;;;13.20;11.63;;;4.30;99.90;;;;;;5028791;28;20250;-69
2023/04/05 06:55:32;;;;;;;12.10;10.50;;;4.40;99.90;;;;;;5031564;28;20764;-69
2023/04/05 06:57:58;;;;;;;12.60;10.67;;;4.20;99.90;;;;;;5023268;28;20182;-70
2023/04/05 07:00:24;;;;;;;12.60;10.53;;;4.00;99.90;;;;;;5024332;28;20207;-72
2023/04/05 07:02:49;;;;;;;13.27;11.97;;;4.20;99.90;;;;;;5035564;28;20675;-69
2023/04/05 07:05:15;;;;;;;12.30;11.10;;;4.30;99.90;;;;;;5037834;28;20225;-69
2023/04/05 07:07:43;;;;;;;13.87;12.43;;;4.40;99.90;;;;;;5034251;28;20594;-69
2023/04/05 07:10:09;;;;;;;12.70;11.50;;;4.40;99.90;;;;;;5023788;28;20617;-69
2023/04/05 07:12:35;;;;;;;14.10;12.60;;;4.40;99.90;;;;;;5029798;28;20422;-69
2023/04/05 07:15:01;;;;;;;12.40;11.20;;;4.40;99.90;;;;;;5024423;28;20453;-69
2023/04/05 07:17:27;;;;;;;13.17;11.90;;;4.50;99.90;;;;;;5028624;28;20433;-72
2023/04/05 07:19:52;;;;;;;14.07;12.87;;;4.30;99.90;;;;;;5030517;28;20434;-71
2023/04/05 07:22:18;;;;;;;14.30;11.23;;;4.10;99.90;;;;;;5022307;28;20294;-71
2023/04/05 07:24:45;;;;;;;12.60;11.40;;;4.10;99.90;;;;;;5035517;28;20189;-69
2023/04/05 07:27:11;;;;;;;13.57;11.60;;;4.30;99.90;;;;;;5027975;28;20187;-69
2023/04/05 07:29:39;;;;;;;13.53;10.70;;;4.20;99.90;;;;;;5029499;28;20890;-70
2023/04/05 07:32:06;;;;;;;15.00;11.10;;;4.40;99.90;;;;;;5031818;28;20418;-71
2023/04/05 07:34:32;;;;;;;16.50;12.97;;;4.60;99.90;;;;;;5028882;28;20417;-70
2023/04/05 07:36:58;;;;;;;12.80;11.50;;;4.40;99.90;;;;;;5024778;28;20426;-71
2023/04/05 07:39:24;;;;;;;15.00;13.40;;;4.40;99.90;;;;;;5036127;28;20519;-70
2023/04/05 07:41:50;;;;;;;12.80;11.60;;;4.70;99.90;;;;;;5033524;28;20254;-68
2023/04/05 07:44:16;;;;;;;12.63;11.30;;;5.00;99.90;;;;;;5038681;28;20755;-69
2023/04/05 07:46:43;;;;;;;13.13;11.77;;;4.90;99.90;;;;;;5027680;28;20418;-69
2023/04/05 07:49:10;;;;;;;13.63;12.33;;;4.80;99.90;;;;;;5033908;28;20460;-69
2023/04/05 07:51:37;;;;;;;16.40;12.30;;;4.70;99.90;;;;;;5030000;28;20476;-68
2023/04/05 07:54:04;;;;;;;14.00;12.43;;;4.80;99.90;;;;;;5024965;28;20406;-68
2023/04/05 07:56:30;;;;;;;15.97;12.20;;;5.00;99.90;;;;;;5021034;28;20803;-67
2023/04/05 07:58:57;;;;;;;19.20;12.70;;;5.20;99.90;;;;;;5021911;28;20422;-68
2023/04/05 08:01:26;;;;;;;13.80;12.37;;;5.50;99.90;;;;;;5024685;28;21006;-70
2023/04/05 08:03:53;;;;;;;13.60;11.60;;;5.60;99.90;;;;;;5030878;28;20972;-69
2023/04/05 08:06:19;;;;;;;16.63;11.30;;;5.70;98.90;;;;;;5032523;28;20450;-70
2023/04/05 08:08:45;;;;;;;15.53;13.83;;;5.80;99.30;;;;;;5033496;28;20488;-68
2023/04/05 08:11:12;;;;;;;15.70;12.60;;;5.50;99.90;;;;;;5025587;28;21044;-68
2023/04/05 08:13:40;;;;;;;13.37;12.03;;;5.40;99.90;;;;;;5027074;28;20409;-67
2023/04/05 08:16:07;;;;;;;14.63;11.50;;;5.30;99.90;;;;;;5041248;28;20426;-67
2023/04/05 08:18:32;;;;;;;13.80;11.87;;;5.60;99.90;;;;;;5036482;28;20425;-68
2023/04/05 08:20:58;;;;;;;12.30;11.20;;;5.90;99.30;;;;;;5041092;28;20535;-66
2023/04/05 08:23:24;;;;;;;16.30;11.40;;;6.10;98.10;;;;;;5034504;28;20594;-70
2023/04/05 08:25:50;;;;;;;13.70;12.20;;;6.20;97.50;;;;;;5029314;28;20604;-69
2023/04/05 08:28:16;;;;;;;15.27;13.70;;;6.30;97.90;;;;;;5039373;28;20261;-69
2023/04/05 08:30:42;;;;;;;16.50;12.00;;;6.40;98.20;;;;;;5026474;28;20487;-69
2023/04/05 08:33:07;;;;;;;12.30;11.07;;;6.20;97.70;;;;;;5035079;28;21072;-68
2023/04/05 08:35:36;;;;;;;11.93;10.03;;;6.30;96.90;;;;;;5028274;28;20821;-70
2023/04/05 08:38:02;;;;;;;14.03;11.03;;;6.30;95.90;;;;;;5011818;28;20601;-67
2023/04/05 08:40:45;;;;;;;11.13;9.93;;;6.40;95.70;;;;;;5032741;28;20454;-69
2023/04/05 08:43:39;;;;;;;10.67;9.60;;;6.40;95.70;;;;;;5029356;28;20806;-69
2023/04/05 08:46:08;;;;;;;11.63;10.43;;;6.50;95.40;;;;;;5024596;28;20412;-69
2023/04/05 08:48:37;;;;;;;11.80;10.60;;;6.60;93.70;;;;;;5025895;28;20421;-69
2023/04/05 08:51:03;;;;;;;12.00;10.50;;;6.40;94.50;;;;;;5024048;28;20457;-69
2023/04/05 08:53:29;;;;;;;12.13;8.77;;;6.60;95.00;;;;;;5024792;28;20411;-70
2023/04/05 08:55:56;;;;;;;11.03;10.00;;;6.70;93.30;;;;;;5014179;28;20183;-69
2023/04/05 08:58:23;;;;;;;9.73;8.83;;;6.80;92.70;;;;;;5028239;28;20443;-69
2023/04/05 09:00:53;;;;;;;10.60;9.43;;;6.90;92.80;;;;;;5017580;28;20526;-70
2023/04/05 09:03:25;;;;;;;11.63;8.73;;;7.00;93.40;;;;;;5021562;28;20456;-70
2023/04/05 09:05:52;;;;;;;9.90;8.77;;;7.10;90.90;;;;;;5033461;28;20501;-67
2023/04/05 09:08:21;;;;;;;10.80;8.80;;;7.10;91.80;;;;;;5024209;28;20784;-68
2023/04/05 09:10:50;;;;;;;9.37;8.47;;;7.00;90.50;;;;;;5023341;28;20442;-70
2023/04/05 09:13:15;;;;;;;8.47;7.30;;;6.80;90.20;;;;;;5016095;28;20426;-68
2023/04/05 09:15:42;;;;;;;9.13;8.23;;;6.80;90.40;;;;;;5026617;28;20405;-69
2023/04/05 09:18:08;;;;;;;10.37;8.33;;;7.00;90.40;;;;;;5024180;28;20179;-68
2023/04/05 09:20:33;;;;;;;10.70;9.73;;;7.20;90.40;;;;;;5015735;28;20786;-68
2023/04/05 09:22:59;;;;;;;10.27;8.13;;;7.30;90.60;;;;;;5023787;28;20214;-68
2023/04/05 09:25:31;;;;;;;8.23;7.47;;;7.40;88.90;;;;;;5012029;28;20266;-69
2023/04/05 09:28:02;;;;;;;7.60;6.83;;;7.60;88.10;;;;;;5019149;28;20623;-69
2023/04/05 09:30:27;;;;;;;11.07;7.70;;;7.50;87.80;;;;;;5012196;28;20483;-69
2023/04/05 09:32:54;;;;;;;8.10;7.30;;;7.30;87.50;;;;;;5015453;28;20568;-68
2023/04/05 09:35:21;;;;;;;7.00;6.30;;;7.20;85.90;;;;;;5029094;28;20217;-69
2023/04/05 09:37:54;;;;;;;7.03;6.53;;;7.40;88.40;;;;;;5039830;28;20414;-69
2023/04/05 09:40:21;;;;;;;7.43;6.83;;;7.60;86.30;;;;;;5009204;28;20569;-70
2023/04/05 09:42:47;;;;;;;8.07;7.30;;;7.60;85.10;;;;;;5017076;28;20808;-68
2023/04/05 09:45:14;;;;;;;8.87;6.80;;;7.30;82.50;;;;;;5020699;28;20507;-68
2023/04/05 09:47:40;;;;;;;7.03;6.33;;;7.20;83.20;;;;;;5013395;28;20501;-67
2023/04/05 09:50:15;;;;;;;7.17;6.47;;;7.30;83.80;;;;;;5027458;28;20441;-66
2023/04/05 09:52:42;;;;;;;7.53;6.87;;;7.40;84.90;;;;;;5017095;28;20836;-69
2023/04/05 09:55:09;;;;;;;8.10;7.30;;;7.80;84.20;;;;;;5016403;28;20451;-70
2023/04/05 09:57:39;;;;;;;7.97;7.27;;;7.80;84.10;;;;;;5021698;28;20426;-68
2023/04/05 10:00:15;;;;;;;8.10;7.30;;;7.90;84.90;;;;;;5011888;28;20473;-68
2023/04/05 10:02:41;;;;;;;7.70;6.93;;;8.00;82.00;;;;;;5010452;28;20461;-70
2023/04/05 10:05:12;;;;;;;8.20;7.43;;;7.90;81.00;;;;;;5018169;28;20790;-70
2023/04/05 10:07:39;;;;;;;7.80;7.00;;;8.00;80.90;;;;;;5033548;28;20179;-68
2023/04/05 10:10:05;;;;;;;7.87;7.17;;;8.30;81.40;;;;;;5027213;28;20442;-69
2023/04/05 10:12:32;;;;;;;7.70;6.90;;;8.60;81.50;;;;;;5028623;28;20479;-70
2023/04/05 10:14:58;;;;;;;8.37;7.57;;;8.60;79.00;;;;;;5015531;28;21016;-69
2023/04/05 10:17:36;;;;;;;7.37;6.77;;;8.80;81.10;;;;;;5019693;28;20447;-71
2023/04/05 10:20:10;;;;;;;7.23;6.50;;;8.60;79.20;;;;;;5014257;28;20439;-69
2023/04/05 10:23:06;;;;;;;9.00;7.20;;;8.40;77.60;;;;;;5017502;28;20914;-69
2023/04/05 10:25:51;;;;;;;6.73;6.13;;;8.40;78.10;;;;;;5025001;28;20469;-69
2023/04/05 10:28:16;;;;;;;8.83;7.57;;;8.70;80.50;;;;;;5010600;28;20476;-69
2023/04/05 10:30:46;;;;;;;8.03;6.53;;;8.70;78.30;;;;;;5013486;28;20956;-69
2023/04/05 10:33:39;;;;;;;8.00;7.27;;;8.70;79.20;;;;;;5027805;28;20269;-70
2023/04/05 10:36:38;;;;;;;6.80;6.20;;;8.90;80.20;;;;;;5007906;28;20510;-69
2023/04/05 10:39:22;;;;;;;8.00;7.30;;;9.00;78.40;;;;;;5024853;28;20431;-69
2023/04/05 10:41:51;;;;;;;8.27;7.40;;;9.00;76.90;;;;;;5017004;28;20477;-67
2023/04/05 10:44:17;;;;;;;8.63;7.20;;;8.90;77.10;;;;;;5013618;28;20421;-70
2023/04/05 10:46:44;;;;;;;7.17;6.57;;;9.20;78.50;;;;;;5037933;28;20789;-70
2023/04/05 10:49:31;;;;;;;8.00;7.07;;;9.70;77.00;;;;;;5014215;28;20658;-67
2023/04/05 10:51:58;;;;;;;7.00;6.30;;;10.90;74.80;;;;;;5030993;28;20501;-68
2023/04/05 10:54:24;;;;;;;8.07;6.93;;;12.10;67.70;;;;;;5016816;28;20460;-68
2023/04/05 10:56:50;;;;;;;7.50;6.77;;;13.50;64.60;;;;;;5032131;28;20425;-68
2023/04/05 10:59:16;;;;;;;6.63;6.03;;;14.30;60.40;;;;;;5012288;28;20496;-69
2023/04/05 11:01:44;;;;;;;6.90;5.90;;;14.10;59.70;;;;;;5016177;28;20225;-70
2023/04/05 11:04:13;;;;;;;7.07;6.37;;;14.70;56.70;;;;;;4997214;28;20498;-69
2023/04/05 11:06:40;;;;;;;6.80;6.13;;;13.80;55.60;;;;;;5031340;28;20454;-70
2023/04/05 11:09:19;;;;;;;7.20;5.80;;;14.30;54.90;;;;;;5012999;28;20441;-70
2023/04/05 11:11:46;;;;;;;6.23;5.63;;;14.80;53.80;;;;;;5014627;28;20457;-70
2023/04/05 11:14:24;;;;;;;5.63;5.13;;;15.30;53.00;;;;;;5010443;28;20524;-68
2023/04/05 11:16:54;;;;;;;7.60;6.03;;;14.80;53.00;;;;;;5032171;28;20432;-68
2023/04/05 11:19:20;;;;;;;6.23;5.73;;;14.70;52.70;;;;;;5029094;28;20455;-70
2023/04/05 11:21:46;;;;;;;8.10;6.60;;;15.60;52.40;;;;;;5026362;28;20468;-70
2023/04/05 11:24:14;;;;;;;7.80;7.00;;;16.00;50.30;;;;;;5025199;28;20410;-69
2023/04/05 11:26:43;;;;;;;7.10;6.50;;;16.70;50.90;;;;;;5038357;28;20440;-70
2023/04/05 11:29:11;;;;;;;7.10;6.40;;;16.10;49.30;;;;;;5015876;28;20516;-70
2023/04/05 11:32:05;;;;;;;6.33;5.80;;;16.10;49.00;;;;;;5012877;28;20424;-69
2023/04/05 11:34:35;;;;;;;7.27;6.53;;;15.30;49.20;;;;;;5034833;28;20425;-69
2023/04/05 11:37:01;;;;;;;7.27;6.57;;;16.10;49.50;;;;;;5031508;28;20709;-69
2023/04/05 11:39:27;;;;;;;6.30;5.70;;;17.40;47.60;;;;;;5021689;28;20551;-69
2023/04/05 11:42:03;;;;;;;7.90;5.90;;;17.40;46.40;;;;;;5022315;28;20281;-69
2023/04/05 11:44:38;;;;;;;6.00;5.50;;;18.50;46.60;;;;;;5023741;28;20932;-69
2023/04/05 11:47:05;;;;;;;9.50;5.67;;;19.00;44.20;;;;;;5033993;28;20927;-68
2023/04/05 11:49:32;;;;;;;5.67;5.17;;;19.50;43.80;;;;;;5025756;28;20441;-68
2023/04/05 11:51:58;;;;;;;5.90;5.13;;;18.20;43.60;;;;;;5034926;28;20438;-69
2023/04/05 11:54:31;;;;;;;5.83;5.27;;;16.10;43.90;;;;;;5021614;28;20425;-67
2023/04/05 11:56:56;;;;;;;6.30;5.60;;;15.50;47.40;;;;;;5020753;28;20424;-68
2023/04/05 11:59:33;;;;;;;5.97;5.20;;;17.50;45.50;;;;;;5030478;28;20472;-67
2023/04/05 12:02:01;;;;;;;7.77;6.20;;;16.30;45.30;;;;;;5028965;28;20211;-66
2023/04/05 12:04:26;;;;;;;5.83;5.23;;;16.40;44.40;;;;;;5019219;28;20422;-67
2023/04/05 12:07:15;;;;;;;6.60;6.00;;;17.60;45.60;;;;;;5025091;28;20444;-67
2023/04/05 12:10:04;;;;;;;7.77;5.87;;;17.50;43.70;;;;;;5036310;28;20437;-69
2023/04/05 12:12:43;;;;;;;6.43;5.80;;;18.10;42.30;;;;;;5025989;28;20858;-67
2023/04/05 12:15:13;;;;;;;6.03;5.53;;;17.10;44.00;;;;;;5030666;28;20424;-71
2023/04/05 12:17:38;;;;;;;6.10;5.60;;;16.80;43.80;;;;;;5028840;28;21255;-67
2023/04/05 12:20:05;;;;;;;6.23;5.60;;;17.80;42.30;;;;;;5009576;28;20473;-67
2023/04/05 12:22:31;;;;;;;5.90;5.43;;;19.10;42.30;;;;;;5020616;28;20203;-68
2023/04/05 12:24:56;;;;;;;8.60;6.00;;;18.80;40.50;;;;;;5015366;28;20468;-68
2023/04/05 12:27:24;;;;;;;5.60;5.10;;;18.30;41.20;;;;;;5018689;28;20800;-67
2023/04/05 12:30:15;;;;;;;6.53;5.60;;;18.20;41.60;;;;;;5031983;28;20198;-68
2023/04/05 12:32:42;;;;;;;7.07;4.80;;;17.80;42.20;;;;;;5025221;28;20441;-70
2023/04/05 12:35:20;;;;;;;6.50;5.90;;;17.90;43.90;;;;;;5022523;28;20547;-70
2023/04/05 12:37:46;;;;;;;5.50;5.00;;;19.40;41.90;;;;;;5034368;28;20430;-69
2023/04/05 12:40:12;;;;;;;5.87;5.27;;;18.30;40.20;;;;;;5018999;28;20474;-69
2023/04/05 12:42:39;;;;;;;6.53;5.70;;;19.20;41.80;;;;;;5015615;28;20457;-69
2023/04/05 12:45:12;;;;;;;6.70;6.00;;;17.90;41.50;;;;;;5029231;28;20810;-70
2023/04/05 12:47:47;;;;;;;5.90;5.30;;;18.00;40.10;;;;;;5034163;28;20430;-68
2023/04/05 12:50:16;;;;;;;5.60;5.10;;;17.10;41.90;;;;;;5010985;28;20484;-69
2023/04/05 12:52:55;;;;;;;6.53;5.57;;;17.90;41.20;;;;;;5039172;28;20425;-68